Time;durP1;ratioP1;P1;durP2;ratioP2;P2;SDS_P1;SDS_P2;PMS_P1;PMS_P2;Temp;Humidity;BMP_temperature;BMP_pressure;BME280_temperature;BME280_humidity;BME280_pressure;Samples;Min_cycle;Max_cycle;Signal;HPM_P1;HPM_P2
2023/05/10 00:01:08;;;;;;;8.85;4.80;;;;;;;14.32;25.74;100331.19;4979114;28;20053;-69
2023/05/10 00:03:34;;;;;;;10.10;5.00;;;;;;;14.35;25.96;100333.53;4947037;28;20064;-69
2023/05/10 00:06:00;;;;;;;9.95;4.85;;;;;;;14.36;26.11;100335.19;4962923;28;20077;-69
2023/05/10 00:08:26;;;;;;;13.02;5.35;;;;;;;14.37;26.04;100326.19;4947212;28;20112;-69
2023/05/10 00:10:54;;;;;;;12.07;4.80;;;;;;;14.34;26.19;100339.03;4962981;28;20057;-69
2023/05/10 00:13:21;;;;;;;12.90;4.97;;;;;;;14.46;25.79;100322.53;4994955;28;20049;-70
2023/05/10 00:15:47;;;;;;;11.30;5.05;;;;;;;14.31;25.93;100331.38;4946550;28;20042;-69
2023/05/10 00:18:13;;;;;;;8.93;4.80;;;;;;;14.36;26.12;100326.38;4978835;28;20109;-69
2023/05/10 00:20:38;;;;;;;15.77;4.75;;;;;;;14.40;25.85;100330.38;4956100;28;20120;-69
2023/05/10 00:23:04;;;;;;;14.23;5.57;;;;;;;14.30;26.29;100329.69;4974593;28;20430;-70
2023/05/10 00:25:30;;;;;;;11.82;4.97;;;;;;;14.25;26.50;100321.34;5009396;28;20419;-70
2023/05/10 00:27:57;;;;;;;9.27;4.82;;;;;;;14.34;26.19;100331.88;5017830;28;20037;-69
2023/05/10 00:30:23;;;;;;;9.30;4.75;;;;;;;14.35;26.06;100330.88;5017412;28;20095;-69
2023/05/10 00:32:51;;;;;;;11.20;5.10;;;;;;;14.56;26.20;100330.41;5017569;28;20041;-69
2023/05/10 00:35:17;;;;;;;10.02;5.55;;;;;;;14.34;26.39;100331.88;5017671;28;20195;-69
2023/05/10 00:37:44;;;;;;;12.82;5.32;;;;;;;14.27;26.48;100335.38;5000804;28;20566;-69
2023/05/10 00:40:11;;;;;;;17.65;6.30;;;;;;;14.34;26.53;100331.03;5017434;28;20045;-71
2023/05/10 00:42:38;;;;;;;18.45;6.05;;;;;;;14.33;26.72;100329.38;5017361;28;20041;-69
2023/05/10 00:45:08;;;;;;;13.73;5.68;;;;;;;14.53;26.97;100325.38;5017841;28;20167;-70
2023/05/10 00:47:35;;;;;;;12.40;5.57;;;;;;;14.29;26.77;100336.03;5018241;28;20426;-69
2023/05/10 00:50:03;;;;;;;11.35;5.50;;;;;;;14.31;26.70;100328.69;5033917;28;20041;-71
2023/05/10 00:52:30;;;;;;;14.82;5.60;;;;;;;14.42;26.52;100333.72;5035646;28;20050;-68
2023/05/10 00:55:00;;;;;;;14.48;5.50;;;;;;;14.51;26.61;100330.91;5038867;28;20040;-69
2023/05/10 00:57:26;;;;;;;8.80;4.97;;;;;;;14.30;26.62;100332.38;5070980;28;20040;-69
2023/05/10 00:59:53;;;;;;;14.50;5.78;;;;;;;14.42;26.56;100328.38;5054777;28;20106;-69
2023/05/10 01:02:19;;;;;;;14.35;5.50;;;;;;;14.31;26.50;100337.56;5017005;28;20083;-68
2023/05/10 01:04:45;;;;;;;12.43;5.57;;;;;;;14.33;26.67;100330.19;4977660;28;20050;-69
2023/05/10 01:07:11;;;;;;;12.68;5.80;;;;;;;14.30;26.58;100329.69;4977887;28;20156;-70
2023/05/10 01:09:37;;;;;;;9.75;5.75;;;;;;;14.34;26.46;100331.03;4994081;28;20144;-69
2023/05/10 01:12:06;;;;;;;16.40;7.30;;;;;;;14.45;26.72;100328.03;4961724;28;20046;-71
2023/05/10 01:14:33;;;;;;;8.70;5.10;;;;;;;14.43;26.49;100330.88;4994519;28;20427;-71
2023/05/10 01:17:00;;;;;;;8.07;4.82;;;;;;;14.54;26.64;100335.06;4946320;28;20053;-69
2023/05/10 01:19:28;;;;;;;12.43;5.60;;;;;;;14.50;26.50;100329.19;4977676;28;20100;-69
2023/05/10 01:22:07;;;;;;;11.00;5.25;;;;;;;14.69;26.61;100330.72;4977691;28;20054;-69
2023/05/10 01:24:45;;;;;;;7.75;4.57;;;;;;;14.75;26.23;100319.34;4977906;28;20057;-70
2023/05/10 01:27:38;;;;;;;10.80;4.20;;;;;;;14.69;26.47;100320.03;4977714;28;20155;-69
2023/05/10 01:30:22;;;;;;;;;;;;;;;14.82;26.72;100312.34;4939687;28;20064;-71
2023/05/10 01:33:35;;;;;;;11.90;5.15;;;;;;;14.73;26.65;100305.31;4977678;28;19940;-69
2023/05/10 01:36:32;;;;;;;12.07;4.35;;;;;;;14.63;26.18;100328.72;4976044;28;20046;-69
2023/05/10 01:39:11;;;;;;;13.50;4.38;;;;;;;14.69;25.86;100320.88;4960512;28;20058;-69
2023/05/10 01:41:50;;;;;;;12.43;4.78;;;;;;;14.74;26.02;100323.03;4977702;28;20053;-70
2023/05/10 01:44:41;;;;;;;8.90;4.15;;;;;;;14.78;25.72;100325.19;4977463;28;20147;-70
2023/05/10 01:47:07;;;;;;;10.27;4.25;;;;;;;14.41;26.37;100321.34;4998721;28;20045;-70
2023/05/10 01:49:39;;;;;;;10.55;4.55;;;;;;;14.72;25.99;100323.19;5000657;28;20060;-69
2023/05/10 01:52:12;;;;;;;15.07;5.22;;;;;;;14.78;26.60;100319.00;5020703;28;20037;-71
2023/05/10 01:54:43;;;;;;;12.18;5.03;;;;;;;14.76;26.55;100321.03;5020770;28;20041;-69
2023/05/10 01:57:11;;;;;;;12.98;4.55;;;;;;;14.68;26.52;100323.72;5020504;28;20056;-70
2023/05/10 01:59:40;;;;;;;11.45;5.20;;;;;;;14.68;26.91;100311.16;5020365;28;20475;-70
2023/05/10 02:02:08;;;;;;;9.93;5.18;;;;;;;14.69;26.88;100312.00;5036864;28;20349;-70
2023/05/10 02:04:35;;;;;;;12.38;5.75;;;;;;;14.72;26.80;100319.69;5053776;28;20053;-69
2023/05/10 02:07:08;;;;;;;9.23;4.97;;;;;;;14.84;26.65;100319.19;5020738;28;20044;-69
2023/05/10 02:09:35;;;;;;;8.45;4.38;;;;;;;14.46;26.73;100311.84;5004192;28;20373;-69
2023/05/10 02:12:06;;;;;;;9.82;4.55;;;;;;;14.57;26.65;100322.22;5036930;28;20156;-70
2023/05/10 02:14:35;;;;;;;9.68;5.00;;;;;;;14.68;26.72;100307.66;5036837;28;20076;-69
2023/05/10 02:17:04;;;;;;;8.10;3.80;;;;;;;14.64;26.22;100317.84;5037198;28;20117;-69
2023/05/10 02:19:32;;;;;;;8.85;4.03;;;;;;;14.59;26.32;100319.38;5003318;28;20053;-69
2023/05/10 02:22:19;;;;;;;10.27;4.80;;;;;;;14.67;26.54;100319.34;5025274;28;20060;-70
2023/05/10 02:24:47;;;;;;;10.95;4.55;;;;;;;14.60;26.78;100319.19;4987300;28;20510;-70
2023/05/10 02:27:14;;;;;;;13.27;4.47;;;;;;;14.66;26.46;100315.84;5053009;28;20048;-70
2023/05/10 02:29:42;;;;;;;9.00;4.63;;;;;;;14.59;26.42;100316.69;5036293;28;20061;-70
2023/05/10 02:32:10;;;;;;;9.95;4.65;;;;;;;14.72;26.51;100312.50;4996785;28;20140;-70
2023/05/10 02:34:36;;;;;;;15.90;4.80;;;;;;;14.57;26.27;100302.66;4977367;28;20489;-70
2023/05/10 02:37:02;;;;;;;11.45;4.97;;;;;;;14.64;26.52;100309.81;4977240;28;20097;-70
2023/05/10 02:39:28;;;;;;;8.18;4.00;;;;;;;14.58;25.86;100309.66;4977263;28;20077;-70
2023/05/10 02:41:55;;;;;;;16.88;4.70;;;;;;;14.69;26.32;100309.31;4957563;28;20098;-70
2023/05/10 02:44:22;;;;;;;10.38;5.20;;;;;;;14.78;26.74;100313.66;4935776;28;20047;-70
2023/05/10 02:46:48;;;;;;;14.65;5.55;;;;;;;14.73;26.70;100310.69;4941584;28;20054;-70
2023/05/10 02:49:17;;;;;;;19.17;5.15;;;;;;;14.76;26.92;100305.00;4925550;28;20113;-70
2023/05/10 02:51:50;;;;;;;13.25;5.20;;;;;;;14.98;26.60;100314.97;4957417;28;20121;-70
2023/05/10 02:54:21;;;;;;;19.42;5.13;;;;;;;14.97;26.82;100314.16;4941417;28;20058;-70
2023/05/10 02:57:01;;;;;;;16.58;5.75;;;;;;;15.13;26.81;100313.25;4953984;29;20066;-71
2023/05/10 02:59:27;;;;;;;13.00;3.95;;;;;;;14.72;26.18;100307.16;4906587;29;20058;-71
2023/05/10 03:01:53;;;;;;;13.82;4.25;;;;;;;14.83;26.12;100300.63;4937730;29;20047;-70
2023/05/10 03:04:19;;;;;;;14.00;4.60;;;;;;;14.76;26.36;100297.78;4976773;28;20054;-72
2023/05/10 03:06:45;;;;;;;7.85;4.05;;;;;;;14.75;26.20;100298.78;4963809;28;20057;-71
2023/05/10 03:09:12;;;;;;;8.98;4.18;;;;;;;14.89;26.36;100302.63;4972184;28;20119;-73
2023/05/10 03:12:01;;;;;;;16.13;5.38;;;;;;;15.19;26.96;100301.91;4983630;28;20048;-72
2023/05/10 03:14:54;;;;;;;13.02;5.10;;;;;;;15.27;26.84;100307.22;5039515;28;20060;-71
2023/05/10 03:17:24;;;;;;;17.58;5.93;;;;;;;14.83;27.66;100305.97;5073483;28;20059;-71
2023/05/10 03:19:55;;;;;;;14.45;4.65;;;;;;;15.13;27.47;100310.59;5057249;28;20060;-71
2023/05/10 03:22:31;;;;;;;12.85;4.70;;;;;;;15.13;27.37;100305.25;5024502;28;20490;-72
2023/05/10 03:25:05;;;;;;;11.65;4.43;;;;;;;15.07;27.21;100305.94;5039312;28;20402;-72
2023/05/10 03:27:40;;;;;;;20.20;4.45;;;;;;;15.08;27.24;100311.09;5025516;28;20044;-71
2023/05/10 03:30:09;;;;;;;17.80;5.47;;;;;;;15.01;27.32;100306.59;5039883;28;20067;-71
2023/05/10 03:32:35;;;;;;;10.23;4.50;;;;;;;14.79;26.80;100308.13;5039852;28;20051;-71
2023/05/10 03:35:13;;;;;;;9.75;4.50;;;;;;;15.21;26.60;100315.94;5039671;28;20040;-71
2023/05/10 03:37:39;;;;;;;13.48;4.95;;;;;;;14.89;27.04;100308.81;5058488;28;20075;-72
2023/05/10 03:40:07;;;;;;;12.43;4.72;;;;;;;15.08;27.24;100312.97;5058025;28;20036;-72
2023/05/10 03:42:39;;;;;;;9.63;4.65;;;;;;;14.85;27.26;100302.13;5083848;28;20052;-75
2023/05/10 03:45:09;;;;;;;16.85;6.55;;;;;;;15.14;29.46;100306.94;5058570;28;20051;-73
2023/05/10 03:47:37;;;;;;;10.73;4.90;;;;;;;15.05;27.64;100311.44;5071191;28;20813;-74
2023/05/10 03:50:10;;;;;;;19.42;5.75;;;;;;;15.30;29.20;100309.53;5055587;28;20135;-70
2023/05/10 03:52:38;;;;;;;25.73;7.63;;;;;;;14.98;29.54;100306.94;5081368;28;20097;-70
2023/05/10 03:55:07;;;;;;;8.88;4.40;;;;;;;15.07;27.30;100308.59;5063983;28;20043;-72
2023/05/10 03:57:37;;;;;;;19.67;7.70;;;;;;;15.18;29.46;100309.09;4960092;28;20050;-71
2023/05/10 04:00:04;;;;;;;23.85;7.00;;;;;;;15.15;29.43;100312.09;4943233;28;20093;-74
2023/05/10 04:02:41;;;;;;;18.35;6.55;;;;;;;15.14;29.48;100305.06;4962765;28;20062;-75
2023/05/10 04:05:11;;;;;;;22.08;5.85;;;;;;;15.35;29.31;100301.84;4944786;28;20470;-74
2023/05/10 04:07:38;;;;;;;22.50;6.93;;;;;;;15.32;29.64;100299.50;4960493;28;20109;-74
2023/05/10 04:10:06;;;;;;;12.05;5.70;;;;;;;15.48;29.39;100296.81;4944100;28;20042;-69
2023/05/10 04:12:39;;;;;;;19.38;7.13;;;;;;;15.91;29.33;100298.13;4927582;28;20062;-72
2023/05/10 04:15:22;;;;;;;16.50;6.45;;;;;;;15.96;29.58;100293.06;4944658;28;20042;-72
2023/05/10 04:17:48;;;;;;;25.08;6.68;;;;;;;15.66;29.79;100300.09;4925819;28;20046;-73
2023/05/10 04:20:14;;;;;;;15.25;8.02;;;;;;;15.74;29.63;100293.84;4943054;28;20174;-71
2023/05/10 04:22:40;;;;;;;18.85;7.25;;;;;;;15.81;29.86;100292.13;4927430;28;20062;-73
2023/05/10 04:25:07;;;;;;;17.80;6.88;;;;;;;15.88;29.45;100295.78;4936415;29;20462;-71
2023/05/10 04:27:37;;;;;;;18.67;6.93;;;;;;;16.18;29.74;100289.56;4899961;28;20047;-71
2023/05/10 04:30:03;;;;;;;21.83;6.70;;;;;;;16.15;29.98;100295.28;4984352;28;20091;-71
2023/05/10 04:32:32;;;;;;;20.65;6.80;;;;;;;16.05;30.04;100289.34;5001466;28;20045;-72
2023/05/10 04:35:03;;;;;;;20.30;7.00;;;;;;;16.13;29.69;100295.47;5001127;28;20079;-72
2023/05/10 04:37:29;;;;;;;19.63;7.45;;;;;;;16.14;29.88;100281.06;5001746;28;20084;-72
2023/05/10 04:39:56;;;;;;;14.68;6.03;;;;;;;16.21;29.03;100287.38;5001094;28;20539;-72
2023/05/10 04:42:23;;;;;;;16.83;6.55;;;;;;;16.47;29.31;100295.91;5017758;28;20048;-72
2023/05/10 04:44:48;;;;;;;20.05;7.10;;;;;;;16.45;29.44;100292.56;4984932;28;20486;-72
2023/05/10 04:47:16;;;;;;;14.93;6.25;;;;;;;16.52;28.99;100293.53;5000753;28;20041;-72
2023/05/10 04:49:41;;;;;;;14.88;6.53;;;;;;;16.59;28.70;100296.34;4997816;28;20216;-72
2023/05/10 04:52:09;;;;;;;18.02;7.85;;;;;;;16.59;28.81;100290.97;4981621;28;20409;-71
2023/05/10 04:54:34;;;;;;;23.42;8.52;;;;;;;16.69;29.38;100294.22;4981066;28;20057;-71
2023/05/10 04:57:00;;;;;;;16.85;6.57;;;;;;;16.79;28.96;100282.22;4994960;28;20060;-71
2023/05/10 04:59:26;;;;;;;20.02;6.72;;;;;;;16.90;29.03;100280.94;4953847;28;20057;-71
2023/05/10 05:01:52;;;;;;;18.48;6.90;;;;;;;16.87;29.04;100283.19;4963275;28;20389;-71
2023/05/10 05:04:18;;;;;;;27.13;7.45;;;;;;;17.06;29.47;100285.31;4977022;28;20046;-71
2023/05/10 05:06:44;;;;;;;23.17;7.15;;;;;;;17.25;29.48;100279.41;4961592;28;20057;-71
2023/05/10 05:09:10;;;;;;;20.92;7.20;;;;;;;17.38;29.38;100275.03;4962012;28;20510;-71
2023/05/10 05:11:36;;;;;;;27.73;6.97;;;;;;;17.63;29.36;100276.44;4978185;28;20041;-71
2023/05/10 05:14:01;;;;;;;19.00;7.07;;;;;;;17.70;29.24;100279.19;4962078;28;20376;-71
2023/05/10 05:16:27;;;;;;;13.02;6.75;;;;;;;17.84;28.77;100275.66;4962095;28;20116;-71
2023/05/10 05:18:53;;;;;;;26.85;7.30;;;;;;;18.01;28.87;100279.78;4978037;28;20057;-71
2023/05/10 05:21:19;;;;;;;22.02;6.95;;;;;;;18.25;28.44;100274.88;4976840;28;20148;-71
2023/05/10 05:23:45;;;;;;;14.60;6.30;;;;;;;18.44;27.97;100279.66;5013503;28;20041;-71
2023/05/10 05:26:11;;;;;;;20.67;6.50;;;;;;;18.54;27.96;100284.72;4997943;28;20049;-71
2023/05/10 05:28:38;;;;;;;20.00;6.60;;;;;;;18.68;27.85;100272.19;4997209;28;20057;-71
2023/05/10 05:31:05;;;;;;;19.52;6.30;;;;;;;18.87;27.50;100266.97;5033282;28;20064;-71
2023/05/10 05:33:31;;;;;;;18.35;5.78;;;;;;;19.06;27.04;100274.34;5037826;28;20106;-71
2023/05/10 05:35:57;;;;;;;17.77;6.32;;;;;;;19.22;26.81;100274.03;5037949;28;20044;-71
2023/05/10 05:38:23;;;;;;;13.82;5.72;;;;;;;19.44;26.41;100274.81;5037760;28;20048;-71
2023/05/10 05:40:49;;;;;;;14.45;5.75;;;;;;;19.63;26.20;100268.69;5037730;28;20043;-71
2023/05/10 05:43:15;;;;;;;10.45;5.90;;;;;;;19.83;25.71;100278.50;5021539;28;20139;-71
2023/05/10 05:45:41;;;;;;;10.55;5.70;;;;;;;20.00;25.51;100271.72;5021480;28;20546;-71
2023/05/10 05:48:07;;;;;;;19.13;6.30;;;;;;;20.22;24.90;100274.31;5054352;28;20044;-71
2023/05/10 05:50:33;;;;;;;18.23;6.30;;;;;;;20.46;24.38;100265.63;5054646;28;20506;-71
2023/05/10 05:52:58;;;;;;;18.42;5.30;;;;;;;20.66;24.17;100272.69;5037670;28;20037;-71
2023/05/10 05:55:25;;;;;;;16.10;5.45;;;;;;;20.88;23.58;100270.63;5021100;28;20049;-71
2023/05/10 05:57:51;;;;;;;19.60;5.40;;;;;;;21.07;23.59;100269.78;5054290;28;20077;-71
2023/05/10 06:00:18;;;;;;;21.08;5.65;;;;;;;21.37;23.36;100260.16;5021198;28;20044;-71
2023/05/10 06:02:44;;;;;;;18.90;5.00;;;;;;;21.42;22.86;100261.19;5037847;28;20043;-71
2023/05/10 06:05:10;;;;;;;18.80;5.50;;;;;;;21.63;22.48;100268.19;5020982;28;20115;-71
2023/05/10 06:07:36;;;;;;;15.60;5.32;;;;;;;21.85;22.65;100261.44;5021068;28;20131;-71
2023/05/10 06:10:02;;;;;;;20.52;4.60;;;;;;;22.04;21.77;100267.81;5020934;28;20101;-71
2023/05/10 06:12:30;;;;;;;12.45;4.50;;;;;;;22.15;21.47;100259.84;5038166;28;20391;-71
2023/05/10 06:14:56;;;;;;;11.10;4.47;;;;;;;22.29;21.18;100252.47;5037528;28;20036;-71
2023/05/10 06:17:22;;;;;;;25.95;5.25;;;;;;;22.50;20.92;100252.94;5020915;28;20133;-71
2023/05/10 06:19:48;;;;;;;16.50;4.80;;;;;;;22.68;20.74;100244.88;5054147;28;20055;-72
2023/05/10 06:22:13;;;;;;;14.40;4.20;;;;;;;22.98;20.10;100259.44;5070999;28;20050;-71
2023/05/10 06:24:40;;;;;;;11.88;4.43;;;;;;;23.36;19.75;100253.03;5021153;28;20036;-70
2023/05/10 06:27:06;;;;;;;15.38;3.70;;;;;;;23.45;19.12;100252.47;5037467;28;20048;-71
2023/05/10 06:29:32;;;;;;;9.77;3.45;;;;;;;23.70;18.09;100255.94;5037020;28;20063;-71
2023/05/10 06:31:58;;;;;;;12.15;3.70;;;;;;;23.86;17.65;100257.19;5037259;28;20422;-71
2023/05/10 06:34:25;;;;;;;14.80;3.05;;;;;;;24.09;17.07;100246.47;5020833;28;20040;-71
2023/05/10 06:36:51;;;;;;;11.75;2.85;;;;;;;24.21;15.51;100248.16;5056158;28;20049;-71
2023/05/10 06:39:17;;;;;;;13.63;2.60;;;;;;;24.43;15.44;100246.56;5024676;28;20055;-71
2023/05/10 06:41:43;;;;;;;12.38;2.63;;;;;;;24.43;15.29;100243.84;5040825;28;20224;-71
2023/05/10 06:44:09;;;;;;;13.57;2.85;;;;;;;24.65;14.83;100241.41;5024213;28;20040;-71
2023/05/10 06:46:36;;;;;;;13.35;2.63;;;;;;;25.00;13.88;100242.31;5024191;28;20143;-71
2023/05/10 06:49:02;;;;;;;6.32;1.67;;;;;;;24.78;13.93;100235.78;5040686;28;20048;-72
2023/05/10 06:51:28;;;;;;;3.78;1.58;;;;;;;24.85;13.51;100247.34;5040528;28;20053;-72
2023/05/10 06:53:54;;;;;;;5.03;1.70;;;;;;;25.00;13.42;100241.47;5040725;28;20044;-72
2023/05/10 06:56:21;;;;;;;7.07;1.73;;;;;;;25.29;12.93;100241.34;5024535;28;20589;-71
2023/05/10 06:58:50;;;;;;;4.40;1.60;;;;;;;25.94;12.57;100234.53;5024280;28;20448;-71
2023/05/10 07:01:16;;;;;;;5.78;2.00;;;;;;;25.87;12.62;100235.75;5057229;28;20037;-71
2023/05/10 07:03:41;;;;;;;8.77;1.80;;;;;;;26.17;12.66;100237.19;5024003;28;20051;-71
2023/05/10 07:06:07;;;;;;;6.00;1.60;;;;;;;26.51;12.01;100239.97;5040682;28;20055;-71
2023/05/10 07:08:35;;;;;;;7.25;1.50;;;;;;;26.63;11.77;100232.53;5023870;28;20066;-72
2023/05/10 07:11:01;;;;;;;6.10;1.50;;;;;;;26.02;11.85;100236.91;5040592;28;20044;-71
2023/05/10 07:13:30;;;;;;;5.75;1.77;;;;;;;26.03;11.76;100222.22;5040249;28;20044;-72
2023/05/10 07:15:56;;;;;;;5.65;1.40;;;;;;;26.43;11.65;100233.03;5016124;28;20049;-72
2023/05/10 07:18:21;;;;;;;4.00;1.50;;;;;;;26.80;11.42;100222.50;4983437;28;20053;-71
2023/05/10 07:20:48;;;;;;;5.93;1.48;;;;;;;27.34;10.86;100227.94;4983649;28;20107;-72
2023/05/10 07:23:14;;;;;;;9.48;1.40;;;;;;;27.13;10.76;100222.44;5015894;28;20056;-71
2023/05/10 07:25:40;;;;;;;17.30;2.58;;;;;;;27.30;10.98;100224.06;4999681;28;20103;-71
2023/05/10 07:28:07;;;;;;;5.20;1.50;;;;;;;27.85;10.73;100224.75;4999297;28;20045;-71
2023/05/10 07:30:32;;;;;;;12.23;1.50;;;;;;;28.31;10.32;100228.00;4999454;28;20049;-72
2023/05/10 07:32:59;;;;;;;3.85;1.40;;;;;;;29.18;9.95;100229.28;4999427;28;20506;-72
2023/05/10 07:35:25;;;;;;;5.93;1.98;;;;;;;30.62;8.94;100227.28;4983249;28;20045;-72
2023/05/10 07:37:51;;;;;;;6.00;2.13;;;;;;;31.21;8.53;100217.34;4983447;28;20487;-72
2023/05/10 07:40:16;;;;;;;7.10;1.42;;;;;;;31.76;8.42;100221.81;4999151;28;20049;-72
2023/05/10 07:42:42;;;;;;;3.92;1.58;;;;;;;31.42;8.24;100218.97;4982839;28;20950;-72
2023/05/10 07:45:08;;;;;;;2.95;1.38;;;;;;;31.29;7.99;100218.69;5015483;28;20037;-72
2023/05/10 07:47:34;;;;;;;2.97;1.52;;;;;;;31.04;8.42;100216.84;4999164;28;20072;-72
2023/05/10 07:50:00;;;;;;;8.10;1.90;;;;;;;31.55;8.06;100212.03;4999306;28;20089;-72
2023/05/10 07:52:26;;;;;;;4.85;1.50;;;;;;;32.13;7.70;100214.78;4999044;28;20045;-72
2023/05/10 07:54:53;;;;;;;5.75;2.08;;;;;;;32.87;7.48;100205.38;4999205;28;20189;-72
2023/05/10 07:57:19;;;;;;;4.07;2.10;;;;;;;33.27;7.13;100202.22;4982878;28;20037;-72
2023/05/10 07:59:46;;;;;;;8.32;1.63;;;;;;;34.41;6.90;100196.31;4982822;28;20153;-72
2023/05/10 08:02:12;;;;;;;6.93;2.92;;;;;;;35.47;6.11;100195.19;4982551;28;20037;-73
2023/05/10 08:04:40;;;;;;;8.88;3.78;;;;;;;36.76;5.76;100186.94;4998684;28;20064;-72
2023/05/10 08:07:07;;;;;;;11.77;2.38;;;;;;;37.24;5.08;100196.19;5018011;28;20052;-73
2023/05/10 08:09:33;;;;;;;5.18;2.20;;;;;;;38.33;5.05;100190.34;5055896;28;20052;-73
2023/05/10 08:11:59;;;;;;;5.07;1.85;;;;;;;38.99;4.44;100178.66;5022917;28;20059;-73
2023/05/10 08:14:28;;;;;;;7.72;1.50;;;;;;;39.71;4.16;100186.81;5022564;28;20062;-73
2023/05/10 08:16:55;;;;;;;6.68;1.98;;;;;;;39.36;4.35;100182.56;5055879;28;20036;-73
2023/05/10 08:19:21;;;;;;;4.60;1.48;;;;;;;38.67;4.90;100168.13;5022900;28;20486;-72
2023/05/10 08:21:47;;;;;;;6.80;1.95;;;;;;;38.48;4.64;100174.00;5038964;28;20059;-73
2023/05/10 08:24:13;;;;;;;8.38;1.52;;;;;;;38.21;4.74;100170.78;5055542;28;20037;-73
2023/05/10 08:26:39;;;;;;;5.88;2.50;;;;;;;39.08;4.15;100173.88;5072121;28;20263;-73
2023/05/10 08:29:05;;;;;;;3.90;1.27;;;;;;;39.62;4.00;100174.94;5038515;28;20056;-73
2023/05/10 08:31:32;;;;;;;3.00;1.23;;;;;;;39.31;3.93;100168.88;5039080;28;20040;-73
2023/05/10 08:33:57;;;;;;;4.72;2.17;;;;;;;40.56;3.64;100166.66;5038292;28;20478;-73
2023/05/10 08:36:28;;;;;;;7.60;1.20;;;;;;;42.09;2.73;100166.59;5023172;28;20181;-73
2023/05/10 08:38:54;;;;;;;5.75;1.10;;;;;;;41.84;2.88;100156.66;5022684;28;20048;-73
2023/05/10 08:41:21;;;;;;;10.65;1.17;;;;;;;40.76;3.43;100153.84;5022482;28;20044;-73
2023/05/10 08:43:47;;;;;;;5.30;1.30;;;;;;;39.66;3.43;100164.75;5022172;28;20051;-73
2023/05/10 08:46:19;;;;;;;1.95;1.10;;;;;;;39.67;3.13;100155.28;5071663;28;20169;-73
2023/05/10 08:48:47;;;;;;;2.13;1.10;;;;;;;39.48;3.32;100157.69;5022389;28;20044;-73
2023/05/10 08:51:16;;;;;;;1.92;1.00;;;;;;;40.91;3.35;100161.53;5033867;28;20057;-73
2023/05/10 08:53:42;;;;;;;3.63;1.23;;;;;;;41.21;2.85;100144.25;5017944;28;20171;-73
2023/05/10 08:56:08;;;;;;;2.38;1.20;;;;;;;40.18;3.11;100143.75;5017632;28;20144;-73
2023/05/10 08:58:35;;;;;;;3.50;2.08;;;;;;;39.01;3.58;100145.81;5017137;28;20151;-73
2023/05/10 09:01:01;;;;;;;2.10;1.40;;;;;;;37.37;4.21;100142.56;5017515;28;20059;-73
2023/05/10 09:03:27;;;;;;;2.55;1.17;;;;;;;36.53;4.47;100133.53;5001061;28;20471;-73
2023/05/10 09:05:55;;;;;;;4.05;1.05;;;;;;;36.07;4.73;100129.44;5017681;28;20052;-73
2023/05/10 09:08:25;;;;;;;6.57;1.73;;;;;;;37.94;3.74;100121.94;5017483;28;20040;-73
2023/05/10 09:10:52;;;;;;;3.97;1.15;;;;;;;38.94;3.88;100127.97;5001144;28;20053;-73
2023/05/10 09:13:19;;;;;;;2.30;1.30;;;;;;;40.57;3.12;100136.81;5000733;28;20565;-73
2023/05/10 09:15:45;;;;;;;4.68;1.00;;;;;;;41.54;2.59;100142.19;5001085;28;20041;-73
2023/05/10 09:18:12;;;;;;;3.92;1.00;;;;;;;40.91;3.01;100148.41;4984728;28;20114;-73
2023/05/10 09:20:37;;;;;;;3.33;1.60;;;;;;;41.73;2.71;100141.56;5017471;28;20510;-73
2023/05/10 09:23:04;;;;;;;2.90;0.90;;;;;;;42.09;2.29;100135.88;5049667;28;20147;-73
2023/05/10 09:25:33;;;;;;;5.18;1.10;;;;;;;42.29;2.29;100132.06;5039295;28;20051;-73
2023/05/10 09:28:00;;;;;;;4.68;1.15;;;;;;;43.11;2.27;100125.56;5022035;28;20379;-74
2023/05/10 09:30:30;;;;;;;2.88;1.20;;;;;;;43.81;1.88;100134.00;5021578;28;20490;-73
2023/05/10 09:32:57;;;;;;;3.17;1.00;;;;;;;45.13;1.57;100129.41;5021915;28;20028;-73
2023/05/10 09:35:28;;;;;;;7.15;1.05;;;;;;;44.45;1.78;100123.75;5038041;28;20079;-73
2023/05/10 09:37:56;;;;;;;3.80;1.33;;;;;;;43.06;2.55;100114.59;5071218;28;20068;-73
2023/05/10 09:40:27;;;;;;;3.88;1.27;;;;;;;41.90;2.61;100104.19;5054577;28;20060;-73
2023/05/10 09:42:58;;;;;;;3.60;1.10;;;;;;;40.48;3.24;100105.47;5054216;28;20047;-73
2023/05/10 09:45:25;;;;;;;3.88;1.20;;;;;;;38.88;3.29;100087.63;5037569;28;20473;-73
2023/05/10 09:47:52;;;;;;;2.95;1.30;;;;;;;37.25;4.19;100075.88;5054274;28;20399;-73
2023/05/10 09:50:20;;;;;;;5.75;1.40;;;;;;;36.28;4.49;100080.75;5037496;28;20037;-73
2023/05/10 09:52:53;;;;;;;11.70;1.70;;;;;;;35.16;5.25;100069.84;5054366;28;20052;-73
2023/05/10 09:55:21;;;;;;;6.95;2.80;;;;;;;34.32;5.82;100065.69;5037813;28;20071;-73
2023/05/10 09:57:48;;;;;;;7.32;2.30;;;;;;;33.49;6.13;100054.59;5054166;28;20104;-72
2023/05/10 10:00:21;;;;;;;7.80;2.20;;;;;;;33.14;6.52;100068.84;5054254;28;20047;-72
2023/05/10 10:02:58;;;;;;;12.00;2.03;;;;;;;34.35;5.95;100065.09;5037583;28;20040;-73
2023/05/10 10:05:29;;;;;;;8.15;1.90;;;;;;;35.81;5.42;100071.16;5037764;28;20037;-73
2023/05/10 10:07:57;;;;;;;8.50;1.88;;;;;;;35.73;5.24;100069.13;5054191;28;20076;-73
2023/05/10 10:10:24;;;;;;;13.45;1.88;;;;;;;35.28;5.38;100070.13;5037582;28;20036;-72
2023/05/10 10:12:54;;;;;;;6.63;1.50;;;;;;;34.88;5.54;100059.94;5024738;28;20043;-73
2023/05/10 10:15:24;;;;;;;5.68;1.77;;;;;;;34.45;5.70;100055.81;5041021;28;20049;-74
2023/05/10 10:17:55;;;;;;;7.60;2.20;;;;;;;34.91;5.57;100057.41;5008324;28;20056;-73
2023/05/10 10:20:22;;;;;;;7.57;2.20;;;;;;;35.93;5.03;100063.13;5023665;28;20047;-73
2023/05/10 10:22:49;;;;;;;4.38;1.50;;;;;;;36.22;5.04;100055.19;5023771;28;20067;-74
2023/05/10 10:25:17;;;;;;;10.55;1.95;;;;;;;35.66;5.00;100044.69;5016789;28;20123;-74
2023/05/10 10:28:04;;;;;;;8.95;1.40;;;;;;;35.38;5.15;100051.41;5017265;28;20064;-74
2023/05/10 10:30:43;;;;;;;8.52;2.03;;;;;;;34.90;5.54;100044.72;5000699;28;20461;-75
2023/05/10 10:34:04;;;;;;;7.20;2.30;;;;;;;34.73;5.62;100044.50;5017137;28;20042;-75
2023/05/10 10:36:33;;;;;;;8.90;1.75;;;;;;;33.39;5.91;100041.00;4958432;28;20051;-75
2023/05/10 10:39:01;;;;;;;7.10;3.10;;;;;;;31.79;6.54;100038.03;4964528;28;20054;-74
2023/05/10 10:41:35;;;;;;;8.48;3.30;;;;;;;31.20;7.12;100039.22;4943113;28;20525;-72
2023/05/10 10:44:27;;;;;;;6.38;1.70;;;;;;;31.03;7.25;100034.06;4942643;28;20074;-74
2023/05/10 10:47:18;;;;;;;4.55;2.00;;;;;;;31.08;7.33;100015.69;4976407;28;20110;-73
2023/05/10 10:49:59;;;;;;;7.25;2.10;;;;;;;31.91;7.21;100019.25;4978013;28;20054;-74
2023/05/10 10:52:38;;;;;;;9.10;2.05;;;;;;;32.92;6.55;100023.72;4926959;28;20059;-74
2023/05/10 10:55:10;;;;;;;9.38;2.40;;;;;;;34.69;5.98;100031.63;4926950;28;20051;-74
2023/05/10 10:57:47;;;;;;;7.38;2.20;;;;;;;36.49;5.39;100015.50;4981550;28;20173;-74
2023/05/10 11:00:20;;;;;;;6.45;2.25;;;;;;;37.83;4.43;100028.31;4997609;28;20125;-75
2023/05/10 11:02:53;;;;;;;3.42;2.03;;;;;;;38.93;3.84;100029.94;4981300;28;20057;-75
2023/05/10 11:05:38;;;;;;;3.35;1.95;;;;;;;39.42;4.09;100023.63;4972270;28;20059;-74
2023/05/10 11:08:34;;;;;;;11.20;1.98;;;;;;;38.72;4.17;100029.88;5000020;28;20135;-74
2023/05/10 11:11:00;;;;;;;5.03;2.20;;;;;;;37.05;4.64;100013.56;4968793;28;20843;-74
2023/05/10 11:13:29;;;;;;;5.55;2.10;;;;;;;36.26;5.13;100016.66;5055526;28;20040;-73
2023/05/10 11:15:56;;;;;;;5.68;2.13;;;;;;;35.05;5.49;100015.97;5055962;28;20060;-73
2023/05/10 11:18:30;;;;;;;8.80;1.80;;;;;;;34.41;6.08;100003.22;5038944;28;20143;-73
2023/05/10 11:21:05;;;;;;;8.63;1.90;;;;;;;33.57;6.17;100003.53;5022186;28;20109;-73
2023/05/10 11:23:34;;;;;;;5.63;1.80;;;;;;;32.55;6.72;99999.69;5022170;28;20516;-73
2023/05/10 11:26:05;;;;;;;5.00;2.08;;;;;;;31.92;7.05;99989.88;5038878;28;20048;-74
2023/05/10 11:28:32;;;;;;;8.93;1.83;;;;;;;31.44;7.42;99990.78;5022925;28;20060;-74
2023/05/10 11:31:00;;;;;;;12.35;2.42;;;;;;;31.11;7.48;99986.84;5021977;28;20048;-74
2023/05/10 11:33:25;;;;;;;9.65;2.30;;;;;;;30.87;7.68;99988.63;5008330;28;20069;-74